createdAt,value
2019-05-29T00:02:24.992Z,7.50
2019-05-29T00:04:59.159Z,7.97
2019-05-29T00:07:32.647Z,9.27
2019-05-29T00:10:10.361Z,8.30
2019-05-29T00:12:43.965Z,10.33
2019-05-29T00:15:18.691Z,8.60
2019-05-29T00:17:52.216Z,10.87
2019-05-29T00:20:25.625Z,9.37
2019-05-29T00:22:59.041Z,11.40
2019-05-29T00:25:32.453Z,12.60
2019-05-29T00:28:06.500Z,11.50
2019-05-29T00:30:39.958Z,11.03
2019-05-29T00:33:14.409Z,10.23
2019-05-29T00:35:47.860Z,12.23
2019-05-29T00:38:21.270Z,11.57
2019-05-29T00:40:54.679Z,10.93
2019-05-29T00:43:28.102Z,13.33
2019-05-29T00:46:01.511Z,11.80
2019-05-29T00:48:34.929Z,12.73
2019-05-29T00:51:08.910Z,13.53
2019-05-29T00:53:42.447Z,13.63
2019-05-29T00:56:16.687Z,15.67
2019-05-29T00:58:50.178Z,15.37
2019-05-29T01:01:23.583Z,14.97
2019-05-29T01:03:57.029Z,17.07
2019-05-29T01:06:30.429Z,14.70
2019-05-29T01:09:04.634Z,15.10
2019-05-29T01:11:38.052Z,16.00
2019-05-29T01:14:11.464Z,15.60
2019-05-29T01:16:44.857Z,16.10
2019-05-29T01:19:27.191Z,14.93
2019-05-29T01:22:00.615Z,15.37
2019-05-29T01:24:34.034Z,15.20
2019-05-29T01:27:07.457Z,15.27
2019-05-29T01:29:40.885Z,15.77
2019-05-29T01:32:15.248Z,23.27
2019-05-29T01:34:48.903Z,18.07
2019-05-29T01:37:22.377Z,14.17
2019-05-29T01:39:55.760Z,15.70
2019-05-29T01:42:29.184Z,16.03
2019-05-29T01:45:07.565Z,16.20
2019-05-29T01:47:37.729Z,16.13
2019-05-29T01:50:11.795Z,16.33
2019-05-29T01:52:45.185Z,17.10
2019-05-29T01:55:19.760Z,17.93
2019-05-29T01:57:53.238Z,17.43
2019-05-29T02:00:28.336Z,17.93
2019-05-29T02:03:01.911Z,16.07
2019-05-29T02:05:35.319Z,17.67
2019-05-29T02:08:08.721Z,16.77
2019-05-29T02:10:42.149Z,16.70
2019-05-29T02:13:15.549Z,15.00
2019-05-29T02:15:49.036Z,15.70
2019-05-29T02:18:22.992Z,14.93
2019-05-29T02:20:56.558Z,13.40
2019-05-29T02:23:29.956Z,12.03
2019-05-29T02:26:03.445Z,10.83
2019-05-29T02:28:36.850Z,11.73
2019-05-29T02:31:10.273Z,11.60
2019-05-29T02:33:43.669Z,10.83
2019-05-29T02:36:17.855Z,9.37
2019-05-29T02:38:51.310Z,10.23
2019-05-29T02:41:26.185Z,12.33
2019-05-29T02:43:59.890Z,11.10
2019-05-29T02:46:33.295Z,11.60
2019-05-29T02:49:06.718Z,9.83
2019-05-29T02:51:40.199Z,9.90
2019-05-29T02:54:13.668Z,9.20
2019-05-29T02:56:47.062Z,11.37
2019-05-29T02:59:21.085Z,8.43
2019-05-29T03:01:54.715Z,9.83
2019-05-29T03:04:30.021Z,10.47
2019-05-29T03:07:03.422Z,11.27
2019-05-29T03:09:37.192Z,10.43
2019-05-29T03:12:10.643Z,13.40
2019-05-29T03:14:44.056Z,11.60
2019-05-29T03:17:17.493Z,10.87
2019-05-29T03:19:50.928Z,11.83
2019-05-29T03:22:24.328Z,11.70
2019-05-29T03:24:57.735Z,11.30
2019-05-29T03:27:31.986Z,12.50
2019-05-29T03:30:07.133Z,11.20
2019-05-29T03:32:47.312Z,15.17
2019-05-29T03:35:15.726Z,11.33
2019-05-29T03:37:49.156Z,15.37
2019-05-29T03:40:22.613Z,12.47
2019-05-29T03:42:55.987Z,15.77
2019-05-29T03:45:31.209Z,12.40
2019-05-29T03:48:04.870Z,12.20
2019-05-29T03:50:38.609Z,13.43
2019-05-29T03:53:12.178Z,11.87
2019-05-29T03:55:45.603Z,14.93
2019-05-29T03:58:19.013Z,13.13
2019-05-29T04:00:52.469Z,11.25
2019-05-29T04:03:26.955Z,13.40
2019-05-29T04:06:00.547Z,9.50
2019-05-29T04:08:35.510Z,10.27
2019-05-29T04:11:09.260Z,9.55
2019-05-29T04:13:42.736Z,11.37
2019-05-29T04:16:16.347Z,11.37
2019-05-29T04:18:50.509Z,9.80
2019-05-29T04:21:25.061Z,9.60
2019-05-29T04:24:00.080Z,11.40
2019-05-29T04:26:37.901Z,7.97
2019-05-29T04:29:12.486Z,11.17
2019-05-29T04:31:45.883Z,9.13
2019-05-29T04:34:19.354Z,8.93
2019-05-29T04:36:52.742Z,9.97
2019-05-29T04:39:26.159Z,10.17
2019-05-29T04:41:59.580Z,8.70
2019-05-29T04:44:33.911Z,9.07
2019-05-29T04:47:11.554Z,8.30
2019-05-29T04:49:43.274Z,8.53
2019-05-29T04:52:16.676Z,7.87
2019-05-29T04:54:50.076Z,7.73
2019-05-29T04:57:23.562Z,8.33
2019-05-29T04:59:56.948Z,8.67
2019-05-29T05:02:31.091Z,8.93
2019-05-29T05:05:05.909Z,7.77
2019-05-29T05:07:39.739Z,8.13
2019-05-29T05:10:14.889Z,7.73
2019-05-29T05:12:48.435Z,6.70
2019-05-29T05:15:21.818Z,8.90
2019-05-29T05:17:55.211Z,7.97
2019-05-29T05:20:29.873Z,6.47
2019-05-29T05:23:03.467Z,7.30
2019-05-29T05:25:36.872Z,9.33
2019-05-29T05:28:10.308Z,8.27
2019-05-29T05:30:44.051Z,5.70
2019-05-29T05:33:17.459Z,6.43
2019-05-29T05:35:50.859Z,7.73
2019-05-29T05:38:24.352Z,9.10
2019-05-29T05:40:57.761Z,6.03
2019-05-29T05:43:31.174Z,5.23
2019-05-29T05:46:04.635Z,7.37
2019-05-29T05:48:39.174Z,5.73
2019-05-29T05:51:12.659Z,5.17
2019-05-29T05:53:46.052Z,6.43
2019-05-29T05:56:19.456Z,6.70
2019-05-29T05:58:52.857Z,6.03
2019-05-29T06:01:26.277Z,5.93
2019-05-29T06:03:59.758Z,5.03
2019-05-29T06:06:33.921Z,6.43
2019-05-29T06:09:08.464Z,5.60
2019-05-29T06:11:42.605Z,4.67
2019-05-29T06:14:16.103Z,5.57
2019-05-29T06:16:49.573Z,5.40
2019-05-29T06:19:22.980Z,4.53
2019-05-29T06:21:56.387Z,5.67
2019-05-29T06:24:29.827Z,7.13
2019-05-29T06:27:03.190Z,6.50
2019-05-29T06:29:37.139Z,5.00
2019-05-29T06:32:10.564Z,5.80
2019-05-29T06:34:43.992Z,4.43
2019-05-29T06:37:17.370Z,5.27
2019-05-29T06:39:50.798Z,5.83
2019-05-29T06:42:24.261Z,5.43
2019-05-29T06:44:57.688Z,3.30
2019-05-29T06:47:31.139Z,4.17
2019-05-29T06:50:05.705Z,5.00
2019-05-29T06:52:39.508Z,6.60
2019-05-29T06:55:13.048Z,5.50
2019-05-29T06:57:46.450Z,4.03
2019-05-29T07:00:34.472Z,3.37
2019-05-29T07:02:55.098Z,4.07
2019-05-29T07:05:28.522Z,5.23
2019-05-29T07:08:16.747Z,7.00
2019-05-29T07:10:38.486Z,7.83
2019-05-29T07:13:12.894Z,3.73
2019-05-29T07:15:47.584Z,5.23
2019-05-29T07:18:21.189Z,3.37
2019-05-29T07:20:54.668Z,5.57
2019-05-29T07:23:28.054Z,3.93
2019-05-29T07:26:01.488Z,3.70
2019-05-29T07:28:34.979Z,5.03
2019-05-29T07:31:08.480Z,4.40
2019-05-29T07:33:54.641Z,5.93
2019-05-29T07:36:28.214Z,3.33
2019-05-29T07:39:03.468Z,5.60
2019-05-29T07:41:37.846Z,4.43
2019-05-29T07:44:11.317Z,5.93
2019-05-29T07:46:45.271Z,5.00
2019-05-29T07:49:19.999Z,5.07
2019-05-29T07:51:53.653Z,4.60
2019-05-29T07:54:27.014Z,4.20
2019-05-29T07:57:00.447Z,3.40
2019-05-29T07:59:33.860Z,6.67
2019-05-29T08:02:07.391Z,4.30
2019-05-29T08:04:41.049Z,2.97
2019-05-29T08:07:14.474Z,3.80
2019-05-29T08:09:47.964Z,7.10
2019-05-29T08:12:21.392Z,3.43
2019-05-29T08:14:54.776Z,3.60
2019-05-29T08:17:28.195Z,3.77
2019-05-29T08:20:06.788Z,3.00
2019-05-29T08:22:36.936Z,4.80
2019-05-29T08:25:10.407Z,6.97
2019-05-29T08:27:44.722Z,3.20
2019-05-29T08:30:18.556Z,3.60
2019-05-29T08:32:51.976Z,3.60
2019-05-29T08:35:25.374Z,3.90
2019-05-29T08:37:58.838Z,4.50
2019-05-29T08:40:32.359Z,3.77
2019-05-29T08:43:05.811Z,3.80
2019-05-29T08:45:39.213Z,3.77
2019-05-29T08:48:12.619Z,3.53
2019-05-29T08:50:46.013Z,4.50
2019-05-29T08:53:19.455Z,2.87
2019-05-29T08:55:52.884Z,2.70
2019-05-29T08:58:26.379Z,3.50
2019-05-29T09:00:59.796Z,3.37
2019-05-29T09:03:33.237Z,3.50
2019-05-29T09:06:09.241Z,3.90
2019-05-29T09:08:43.769Z,3.20
2019-05-29T09:11:16.990Z,3.60
2019-05-29T09:13:50.395Z,3.93
2019-05-29T09:16:24.009Z,5.80
2019-05-29T09:18:57.402Z,3.10
2019-05-29T09:21:30.809Z,3.47
2019-05-29T09:24:04.785Z,5.87
2019-05-29T09:26:38.205Z,2.80
2019-05-29T09:29:11.623Z,3.13
2019-05-29T09:31:45.075Z,5.70
2019-05-29T09:34:18.849Z,3.33
2019-05-29T09:36:55.826Z,3.23
2019-05-29T09:39:29.624Z,3.03
2019-05-29T09:42:03.170Z,2.53
2019-05-29T09:44:39.106Z,2.63
2019-05-29T09:47:12.448Z,3.50
2019-05-29T09:49:45.869Z,4.13
2019-05-29T09:52:19.315Z,3.87
2019-05-29T09:54:53.440Z,3.10
2019-05-29T09:57:28.002Z,2.73
2019-05-29T10:00:02.109Z,3.03
2019-05-29T10:02:36.619Z,3.17
2019-05-29T10:05:10.315Z,3.00
2019-05-29T10:07:43.723Z,1.97
2019-05-29T10:10:17.674Z,2.93
2019-05-29T10:12:51.070Z,2.03
2019-05-29T10:15:24.721Z,4.40
2019-05-29T10:17:58.494Z,1.87
2019-05-29T10:20:31.999Z,2.97
2019-05-29T10:23:05.396Z,2.30
2019-05-29T10:25:38.878Z,2.37
2019-05-29T10:28:12.493Z,2.20
2019-05-29T10:30:46.330Z,3.43
2019-05-29T10:33:19.867Z,2.60
2019-05-29T10:35:55.370Z,4.70
2019-05-29T10:38:28.433Z,2.97
2019-05-29T10:41:06.697Z,2.13
2019-05-29T10:43:37.051Z,2.53
2019-05-29T10:46:10.480Z,2.50
2019-05-29T10:48:45.476Z,2.00
2019-05-29T10:51:19.075Z,1.87
2019-05-29T10:53:55.301Z,2.73
2019-05-29T10:56:27.641Z,1.63
2019-05-29T10:59:01.078Z,2.40
2019-05-29T11:01:34.971Z,2.43
2019-05-29T11:04:08.566Z,3.20
2019-05-29T11:06:42.316Z,2.23
2019-05-29T11:09:15.712Z,2.90
2019-05-29T11:11:50.691Z,2.97
2019-05-29T11:14:24.263Z,3.30
2019-05-29T11:16:57.761Z,2.37
2019-05-29T11:19:31.102Z,2.93
2019-05-29T11:22:24.818Z,2.90
2019-05-29T11:24:40.077Z,1.67
2019-05-29T11:27:13.562Z,3.57
2019-05-29T11:29:48.606Z,2.73
2019-05-29T11:32:22.191Z,2.98
2019-05-29T11:34:55.646Z,3.27
2019-05-29T11:37:29.107Z,4.57
2019-05-29T11:40:03.344Z,2.60
2019-05-29T11:42:36.794Z,2.40
2019-05-29T11:45:11.466Z,2.90
2019-05-29T11:47:44.895Z,2.57
2019-05-29T11:50:20.169Z,2.30
2019-05-29T11:52:54.427Z,3.17
2019-05-29T11:55:27.869Z,2.63
2019-05-29T11:58:02.039Z,2.00
2019-05-29T12:00:35.534Z,3.33
2019-05-29T12:03:09.230Z,2.57
2019-05-29T12:05:42.653Z,1.73
2019-05-29T12:08:16.149Z,2.57
2019-05-29T12:10:49.563Z,1.70
2019-05-29T12:13:22.974Z,2.00
2019-05-29T12:15:57.648Z,2.90
2019-05-29T12:18:31.265Z,1.90
2019-05-29T12:21:04.788Z,2.30
2019-05-29T12:23:38.204Z,3.03
2019-05-29T12:26:21.839Z,2.87
2019-05-29T12:28:46.895Z,2.07
2019-05-29T12:31:20.291Z,2.97
2019-05-29T12:33:54.938Z,2.23
2019-05-29T12:36:28.404Z,2.27
2019-05-29T12:39:02.370Z,3.30
2019-05-29T12:41:36.966Z,1.90
2019-05-29T12:44:10.390Z,2.10
2019-05-29T12:46:43.808Z,3.50
2019-05-29T12:49:17.310Z,4.23
2019-05-29T12:51:50.702Z,1.80
2019-05-29T12:54:24.109Z,3.13
2019-05-29T12:56:57.820Z,1.70
2019-05-29T12:59:31.974Z,1.70
2019-05-29T13:02:05.457Z,2.37
2019-05-29T13:05:06.142Z,2.90
2019-05-29T13:07:14.037Z,1.57
2019-05-29T13:09:47.435Z,1.30
2019-05-29T13:12:20.908Z,2.23
2019-05-29T13:14:54.503Z,2.83
2019-05-29T13:17:27.901Z,1.83
2019-05-29T13:20:13.681Z,1.40
2019-05-29T13:22:38.012Z,2.80
2019-05-29T13:25:12.278Z,1.87
2019-05-29T13:27:45.767Z,1.87
2019-05-29T13:30:19.952Z,1.63
2019-05-29T13:32:53.383Z,2.27
2019-05-29T13:35:27.001Z,2.00
2019-05-29T13:38:01.015Z,1.87
2019-05-29T13:40:34.460Z,1.73
2019-05-29T13:43:15.111Z,16.10
2019-05-29T13:45:43.189Z,14.83
2019-05-29T13:48:16.656Z,1.37
2019-05-29T13:50:50.068Z,4.28
2019-05-29T13:53:23.465Z,2.93
2019-05-29T13:55:57.736Z,2.27
2019-05-29T13:58:31.347Z,1.43
2019-05-29T14:01:06.234Z,1.87
2019-05-29T14:03:39.908Z,2.37
2019-05-29T14:06:13.414Z,2.13
2019-05-29T14:08:47.660Z,3.23
2019-05-29T14:11:21.158Z,3.23
2019-05-29T14:13:56.454Z,2.63
2019-05-29T14:16:30.010Z,3.03
2019-05-29T14:19:04.737Z,2.23
2019-05-29T14:21:38.308Z,4.30
2019-05-29T14:24:26.560Z,5.50
2019-05-29T14:26:48.494Z,1.83
2019-05-29T14:29:21.933Z,2.43
2019-05-29T14:31:55.480Z,1.30
2019-05-29T14:34:28.871Z,1.83
2019-05-29T14:37:04.149Z,1.67
2019-05-29T14:39:37.472Z,2.30
2019-05-29T14:42:11.892Z,2.90
2019-05-29T14:44:45.432Z,2.20
2019-05-29T14:47:18.867Z,3.90
2019-05-29T14:49:52.241Z,1.20
2019-05-29T14:52:25.673Z,2.37
2019-05-29T14:54:59.087Z,2.13
2019-05-29T14:57:32.557Z,2.43
2019-05-29T15:00:22.199Z,5.10
2019-05-29T15:02:44.283Z,2.50
2019-05-29T15:05:18.008Z,2.37
2019-05-29T15:07:51.434Z,1.70
2019-05-29T15:10:27.693Z,4.20
2019-05-29T15:13:00.068Z,2.53
2019-05-29T15:15:33.501Z,1.30
2019-05-29T15:18:07.125Z,1.50
2019-05-29T15:20:40.584Z,2.00
2019-05-29T15:23:15.462Z,1.53
2019-05-29T15:25:49.271Z,1.83
2019-05-29T15:28:22.723Z,1.07
2019-05-29T15:30:56.134Z,2.60
2019-05-29T15:33:29.564Z,2.83
2019-05-29T15:36:02.996Z,1.73
2019-05-29T15:38:36.457Z,2.10
2019-05-29T15:41:10.708Z,1.87
2019-05-29T15:43:44.151Z,1.60
2019-05-29T15:46:17.715Z,2.23
2019-05-29T15:48:51.280Z,3.60
2019-05-29T15:51:24.685Z,2.40
2019-05-29T15:53:58.141Z,2.40
2019-05-29T15:56:31.505Z,1.73
2019-05-29T15:59:07.574Z,2.50
2019-05-29T16:01:40.814Z,2.57
2019-05-29T16:04:15.749Z,1.40
2019-05-29T16:06:49.414Z,1.50
2019-05-29T16:09:22.912Z,1.60
2019-05-29T16:11:56.476Z,3.10
2019-05-29T16:14:29.895Z,4.60
2019-05-29T16:17:03.294Z,3.63
2019-05-29T16:19:36.708Z,3.50
2019-05-29T16:22:10.326Z,3.17
2019-05-29T16:24:43.821Z,2.63
2019-05-29T16:27:18.182Z,2.23
2019-05-29T16:29:51.658Z,2.83
2019-05-29T16:32:25.056Z,3.43
2019-05-29T16:34:58.468Z,2.37
2019-05-29T16:37:31.884Z,1.90
2019-05-29T16:40:11.875Z,2.55
2019-05-29T16:42:45.526Z,1.07
2019-05-29T16:45:20.465Z,3.90
2019-05-29T16:47:54.088Z,2.30
2019-05-29T16:50:27.512Z,1.10
2019-05-29T16:53:00.917Z,3.13
2019-05-29T16:55:34.347Z,1.00
2019-05-29T16:58:07.821Z,2.37
2019-05-29T17:00:41.318Z,1.97
2019-05-29T17:03:15.587Z,1.80
2019-05-29T17:05:49.056Z,1.73
2019-05-29T17:08:22.458Z,1.47
2019-05-29T17:10:55.968Z,1.13
2019-05-29T17:13:29.382Z,1.83
2019-05-29T17:16:02.817Z,1.63
2019-05-29T17:18:36.234Z,1.47
2019-05-29T17:21:09.671Z,2.17
2019-05-29T17:23:43.066Z,1.20
2019-05-29T17:26:16.752Z,1.10
2019-05-29T17:28:50.358Z,2.17
2019-05-29T17:31:24.961Z,1.43
2019-05-29T17:33:58.508Z,2.57
2019-05-29T17:36:32.039Z,1.43
2019-05-29T17:39:08.060Z,1.57
2019-05-29T17:41:41.518Z,1.87
2019-05-29T17:44:15.448Z,1.63
2019-05-29T17:46:48.899Z,1.53
2019-05-29T17:49:30.956Z,1.83
2019-05-29T17:51:57.490Z,1.67
2019-05-29T17:54:30.931Z,1.30
2019-05-29T17:57:04.525Z,1.23
2019-05-29T17:59:37.900Z,1.93
2019-05-29T18:02:11.330Z,1.03
2019-05-29T18:04:44.766Z,2.60
2019-05-29T18:07:18.416Z,3.10
2019-05-29T18:09:52.059Z,1.33
2019-05-29T18:12:25.487Z,1.63
2019-05-29T18:14:58.910Z,2.97
2019-05-29T18:17:32.385Z,2.67
2019-05-29T18:20:14.305Z,1.12
2019-05-29T18:22:45.601Z,2.47
2019-05-29T18:25:19.881Z,1.33
2019-05-29T18:27:53.272Z,2.00
2019-05-29T18:30:26.843Z,2.23
2019-05-29T18:33:00.349Z,2.37
2019-05-29T18:35:33.853Z,1.47
2019-05-29T18:38:07.286Z,1.57
2019-05-29T18:40:40.751Z,1.60
2019-05-29T18:43:14.181Z,1.90
2019-05-29T18:45:47.678Z,1.33
2019-05-29T18:48:21.213Z,4.77
2019-05-29T18:50:54.626Z,2.23
2019-05-29T18:53:28.906Z,3.07
2019-05-29T18:56:02.357Z,3.93
2019-05-29T18:58:35.745Z,2.57
2019-05-29T19:01:09.248Z,2.47
2019-05-29T19:03:42.647Z,3.30
2019-05-29T19:06:16.083Z,4.87
2019-05-29T19:08:49.494Z,3.87
2019-05-29T19:11:23.852Z,2.20
2019-05-29T19:13:57.345Z,2.60
2019-05-29T19:16:31.974Z,3.80
2019-05-29T19:19:06.212Z,6.73
2019-05-29T19:21:39.778Z,6.33
2019-05-29T19:24:13.189Z,3.53
2019-05-29T19:26:46.632Z,3.73
2019-05-29T19:29:20.019Z,1.83
2019-05-29T19:31:53.487Z,1.53
2019-05-29T19:34:27.349Z,6.27
2019-05-29T19:37:00.804Z,10.37
2019-05-29T19:39:34.276Z,6.50
2019-05-29T19:42:07.739Z,8.27
2019-05-29T19:44:41.182Z,4.60
2019-05-29T19:47:14.629Z,6.87
2019-05-29T19:49:48.031Z,5.00
2019-05-29T19:52:21.469Z,3.37
2019-05-29T19:54:54.864Z,3.00
2019-05-29T19:57:28.334Z,2.03
2019-05-29T20:00:01.765Z,1.57
2019-05-29T20:02:35.245Z,2.07
2019-05-29T20:05:09.617Z,1.90
2019-05-29T20:07:43.042Z,2.10
2019-05-29T20:10:18.081Z,2.10
2019-05-29T20:12:51.526Z,2.40
2019-05-29T20:15:24.994Z,3.10
2019-05-29T20:17:58.447Z,2.90
2019-05-29T20:20:32.438Z,4.10
2019-05-29T20:23:05.935Z,1.63
2019-05-29T20:25:39.356Z,2.00
2019-05-29T20:28:12.828Z,3.43
2019-05-29T20:30:46.206Z,2.83
2019-05-29T20:33:19.644Z,2.27
2019-05-29T20:35:53.047Z,1.63
2019-05-29T20:38:26.454Z,6.63
2019-05-29T20:40:59.868Z,2.30
2019-05-29T20:43:33.520Z,1.97
2019-05-29T20:46:06.844Z,1.90
2019-05-29T20:48:40.267Z,2.87
2019-05-29T20:51:13.665Z,2.00
2019-05-29T20:53:47.106Z,1.97
2019-05-29T20:56:20.583Z,1.50
2019-05-29T20:58:54.071Z,4.20
2019-05-29T21:01:27.479Z,2.97
2019-05-29T21:04:00.919Z,2.00
2019-05-29T21:06:34.627Z,2.20
2019-05-29T21:09:08.332Z,2.87
2019-05-29T21:11:41.844Z,3.57
2019-05-29T21:14:15.277Z,2.27
2019-05-29T21:16:48.702Z,2.10
2019-05-29T21:19:22.114Z,2.40
2019-05-29T21:21:55.515Z,2.37
2019-05-29T21:24:28.924Z,4.30
2019-05-29T21:27:02.401Z,2.83
2019-05-29T21:29:36.952Z,2.97
2019-05-29T21:32:10.980Z,3.27
2019-05-29T21:34:44.419Z,2.77
2019-05-29T21:37:17.892Z,4.63
2019-05-29T21:39:51.338Z,2.33
2019-05-29T21:42:24.739Z,2.97
2019-05-29T21:44:58.151Z,2.63
2019-05-29T21:47:31.561Z,3.93
2019-05-29T21:50:09.678Z,6.53
2019-05-29T21:52:43.628Z,2.90
2019-05-29T21:55:17.502Z,2.50
2019-05-29T21:57:50.900Z,2.97
2019-05-29T22:00:33.594Z,3.27
2019-05-29T22:03:07.082Z,4.53
2019-05-29T22:05:40.637Z,3.30
2019-05-29T22:08:14.098Z,5.73
2019-05-29T22:10:47.538Z,4.47
2019-05-29T22:13:20.942Z,4.70
2019-05-29T22:15:54.804Z,4.27
2019-05-29T22:18:28.408Z,3.40
2019-05-29T22:21:01.902Z,3.93
2019-05-29T22:23:35.307Z,4.73
2019-05-29T22:26:08.720Z,3.90
2019-05-29T22:28:42.432Z,3.30
2019-05-29T22:31:15.886Z,3.80
2019-05-29T22:33:49.357Z,3.87
2019-05-29T22:36:22.850Z,3.50
2019-05-29T22:38:57.402Z,4.63
2019-05-29T22:41:31.016Z,5.30
2019-05-29T22:44:04.727Z,4.57
2019-05-29T22:46:38.155Z,3.73
2019-05-29T22:49:11.627Z,4.13
2019-05-29T22:51:45.037Z,3.67
2019-05-29T22:54:18.431Z,3.70
2019-05-29T22:56:52.485Z,3.90
2019-05-29T22:59:32.056Z,3.83
2019-05-29T23:02:02.603Z,4.53
2019-05-29T23:04:36.129Z,5.10
2019-05-29T23:07:09.652Z,7.50
2019-05-29T23:09:43.037Z,4.40
2019-05-29T23:12:16.555Z,4.90
2019-05-29T23:14:49.968Z,5.03
2019-05-29T23:17:23.461Z,5.03
2019-05-29T23:19:56.856Z,7.30
2019-05-29T23:22:30.348Z,6.53
2019-05-29T23:25:04.401Z,6.00
2019-05-29T23:27:37.910Z,6.97
2019-05-29T23:30:12.754Z,4.87
2019-05-29T23:32:46.173Z,5.13
2019-05-29T23:35:19.734Z,4.77
2019-05-29T23:37:53.145Z,5.63
2019-05-29T23:40:26.548Z,5.20
2019-05-29T23:42:59.998Z,5.30
2019-05-29T23:45:33.552Z,5.10
2019-05-29T23:48:06.961Z,5.40
2019-05-29T23:50:40.359Z,5.83
2019-05-29T23:53:13.786Z,5.47
2019-05-29T23:55:47.173Z,5.40
2019-05-29T23:58:20.592Z,6.07
